Houston, Delaware
Current Conditions -  °F | °C
As of 9:38 PM on Wednesday 22 Oct 2014 (Local Time) from KDOV Reporting Station
Overcast Overcast  
Wind Chill: 54°   Ceiling: 2100
Heat Index: 54°   Visibility: 10mi
Dew Point: 54°   Wind: 16mph
Humidity: 100%   Direction: 310°NW
Pressure: 29.81"   Gusts: NA
Location:  38.92°N, 75.51°W
Report Text: KDOV 230138Z AUTO 31014KT 10SM BKN021 OVC026 12/12 A2981 RMK AO2 RAE0134DZB0117E0121 CIG 018V025
Loading
Personal Weather Stations






























Interactive Weather Map
Tropical Storm Tracking
New forecast layout! Learn more

10-Day Weather Forecast

Advertisements
Track Severe Weather on mobile